Time;durP1;ratioP1;P1;durP2;ratioP2;P2;SDS_P1;SDS_P2;PMS_P1;PMS_P2;Temp;Humidity;BMP_temperature;BMP_pressure;BME280_temperature;BME280_humidity;BME280_pressure;Samples;Min_cycle;Max_cycle;Signal;HPM_P1;HPM_P2
2023/05/20 00:02:01;;;;;;;;;;;11.70;99.90;;;;;;8223159;28;19930;-82
2023/05/20 00:06:02;;;;;;;;;;;11.70;99.90;;;;;;8217195;28;19923;-82
2023/05/20 00:10:02;;;;;;;;;;;11.70;99.90;;;;;;8215374;28;19953;-82
2023/05/20 00:14:03;;;;;;;;;;;12.00;99.90;;;;;;8228479;28;19910;-82
2023/05/20 00:18:03;;;;;;;;;;;11.70;99.90;;;;;;8222720;28;20462;-82
2023/05/20 00:22:04;;;;;;;;;;;11.70;99.90;;;;;;8228254;28;20322;-82
2023/05/20 00:26:04;;;;;;;;;;;11.50;99.90;;;;;;8234507;28;19989;-82
2023/05/20 00:30:05;;;;;;;;;;;11.60;99.90;;;;;;8223951;28;19914;-82
2023/05/20 00:34:06;;;;;;;;;;;11.50;99.90;;;;;;8253870;28;19911;-82
2023/05/20 00:38:06;;;;;;;;;;;10.90;99.90;;;;;;8226100;28;19936;-82
2023/05/20 00:42:07;;;;;;;;;;;10.60;99.90;;;;;;8225318;28;19969;-83
2023/05/20 00:46:07;;;;;;;;;;;10.40;99.90;;;;;;8221322;28;19965;-83
2023/05/20 00:50:09;;;;;;;;;;;10.50;99.90;;;;;;8227687;28;20272;-83
2023/05/20 00:54:09;;;;;;;;;;;10.60;99.90;;;;;;8226411;28;19962;-83
2023/05/20 00:58:10;;;;;;;;;;;10.70;99.90;;;;;;8221313;28;20422;-82
2023/05/20 01:02:10;;;;;;;;;;;11.00;99.90;;;;;;8217665;28;20579;-81
2023/05/20 01:06:11;;;;;;;;;;;11.00;99.90;;;;;;8225603;28;20029;-83
2023/05/20 01:10:11;;;;;;;;;;;11.20;99.90;;;;;;8220768;28;19926;-83
2023/05/20 01:14:12;;;;;;;;;;;11.30;99.90;;;;;;8220267;28;20464;-81
2023/05/20 01:18:17;;;;;;;;;;;11.30;99.90;;;;;;8225002;28;19910;-82
2023/05/20 01:22:17;;;;;;;;;;;11.30;99.90;;;;;;8222014;28;19919;-80
2023/05/20 01:26:18;;;;;;;;;;;11.20;99.90;;;;;;8222860;28;19926;-82
2023/05/20 01:30:19;;;;;;;;;;;11.10;99.90;;;;;;8229685;28;19922;-82
2023/05/20 01:34:20;;;;;;;;;;;11.00;99.90;;;;;;8230601;28;19919;-81
2023/05/20 01:38:22;;;;;;;;;;;11.20;99.90;;;;;;8231181;28;19969;-82
2023/05/20 01:42:25;;;;;;;;;;;11.20;99.90;;;;;;8232639;28;20531;-83
2023/05/20 01:46:25;;;;;;;;;;;11.30;99.90;;;;;;8224452;28;20343;-82
2023/05/20 01:50:26;;;;;;;;;;;11.40;99.90;;;;;;8218378;28;19949;-82
2023/05/20 01:54:26;;;;;;;;;;;11.50;99.90;;;;;;8226837;28;19918;-82
2023/05/20 01:58:27;;;;;;;;;;;11.60;99.90;;;;;;8224138;28;19914;-82
2023/05/20 02:02:27;;;;;;;;;;;11.60;99.90;;;;;;8219044;28;19925;-83
2023/05/20 02:06:28;;;;;;;;;;;11.60;99.90;;;;;;8216444;28;19914;-83
2023/05/20 02:10:28;;;;;;;;;;;11.50;99.90;;;;;;8231373;28;19922;-82
2023/05/20 02:14:28;;;;;;;;;;;11.60;99.90;;;;;;8221912;28;19920;-83
2023/05/20 02:18:29;;;;;;;;;;;11.60;99.90;;;;;;8220326;28;20388;-82
2023/05/20 02:22:29;;;;;;;;;;;11.60;99.90;;;;;;8220827;28;19918;-83
2023/05/20 02:26:30;;;;;;;;;;;11.70;99.90;;;;;;8219610;28;19914;-82
2023/05/20 02:30:30;;;;;;;;;;;11.70;99.90;;;;;;8223472;28;19914;-83
2023/05/20 02:34:31;;;;;;;;;;;11.70;99.90;;;;;;8221258;28;19966;-81
2023/05/20 02:38:32;;;;;;;;;;;11.60;99.90;;;;;;8222579;28;19920;-82
2023/05/20 02:42:32;;;;;;;;;;;11.70;99.90;;;;;;8217719;28;19922;-81
2023/05/20 02:46:33;;;;;;;;;;;11.80;99.90;;;;;;8227237;28;20470;-82
2023/05/20 02:50:33;;;;;;;;;;;11.80;99.90;;;;;;8216609;28;19918;-81
2023/05/20 02:54:33;;;;;;;;;;;11.80;99.90;;;;;;8219640;28;20295;-82
2023/05/20 02:58:34;;;;;;;;;;;11.90;99.90;;;;;;8222408;28;19910;-83
2023/05/20 03:02:35;;;;;;;;;;;11.90;99.90;;;;;;8212323;28;19922;-82
2023/05/20 03:06:35;;;;;;;;;;;11.80;99.90;;;;;;8227244;28;20005;-83
2023/05/20 03:10:38;;;;;;;;;;;12.10;99.90;;;;;;8227606;28;20148;-82
2023/05/20 03:14:39;;;;;;;;;;;11.90;99.90;;;;;;8219457;28;20335;-82
2023/05/20 03:18:39;;;;;;;;;;;11.80;99.90;;;;;;8210868;28;19922;-82
2023/05/20 03:22:40;;;;;;;;;;;11.60;99.90;;;;;;8221843;28;20002;-81
2023/05/20 03:26:45;;;;;;;;;;;11.60;99.90;;;;;;8220855;28;19918;-81
2023/05/20 03:30:45;;;;;;;;;;;11.80;99.90;;;;;;8222611;28;19914;-81
2023/05/20 03:34:46;;;;;;;;;;;12.10;99.90;;;;;;8217166;28;19918;-83
2023/05/20 03:38:46;;;;;;;;;;;12.10;99.90;;;;;;8224020;28;19976;-82
2023/05/20 03:42:47;;;;;;;;;;;11.90;99.90;;;;;;8223416;28;19918;-82
2023/05/20 03:46:47;;;;;;;;;;;11.70;99.90;;;;;;8229793;28;19914;-82
2023/05/20 03:50:48;;;;;;;;;;;11.60;99.90;;;;;;8220879;28;19914;-82
2023/05/20 03:54:48;;;;;;;;;;;11.60;99.90;;;;;;8224241;28;19926;-82
2023/05/20 03:58:49;;;;;;;;;;;11.60;99.90;;;;;;8219229;28;19915;-82
2023/05/20 04:02:49;;;;;;;;;;;11.50;99.90;;;;;;8227328;28;19922;-81
2023/05/20 04:06:50;;;;;;;;;;;11.60;99.90;;;;;;8228515;28;19914;-81
2023/05/20 04:10:54;;;;;;;;;;;11.70;99.90;;;;;;8223333;28;19915;-82
2023/05/20 04:14:57;;;;;;;;;;;11.70;99.90;;;;;;8222045;28;20005;-83
2023/05/20 04:18:58;;;;;;;;;;;11.60;99.90;;;;;;8227504;28;20487;-82
2023/05/20 04:22:58;;;;;;;;;;;11.70;99.90;;;;;;8257025;28;19918;-82
2023/05/20 04:26:58;;;;;;;;;;;11.70;99.90;;;;;;8218819;28;19965;-82
2023/05/20 04:30:59;;;;;;;;;;;11.80;99.90;;;;;;8233190;28;20000;-82
2023/05/20 04:35:01;;;;;;;;;;;11.90;99.90;;;;;;8220726;28;20290;-83
2023/05/20 04:39:02;;;;;;;;;;;11.90;99.90;;;;;;8222126;28;19941;-82
2023/05/20 04:43:02;;;;;;;;;;;11.90;99.90;;;;;;8218995;28;20604;-82
2023/05/20 04:47:03;;;;;;;;;;;12.00;99.90;;;;;;8225587;28;20016;-83
2023/05/20 04:51:03;;;;;;;;;;;12.00;99.90;;;;;;8225857;28;19914;-83
2023/05/20 04:55:09;;;;;;;;;;;12.10;99.90;;;;;;8224859;28;19966;-83
2023/05/20 04:59:09;;;;;;;;;;;12.10;99.90;;;;;;8210505;28;19915;-82
2023/05/20 05:03:11;;;;;;;;;;;11.90;99.90;;;;;;8225883;28;20361;-81
2023/05/20 05:07:12;;;;;;;;;;;11.80;99.90;;;;;;8228802;28;20347;-82
2023/05/20 05:11:12;;;;;;;;;;;12.00;99.90;;;;;;8228592;28;19918;-82
2023/05/20 05:15:12;;;;;;;;;;;12.00;99.90;;;;;;8222213;28;19922;-83
2023/05/20 05:19:13;;;;;;;;;;;11.90;99.90;;;;;;8224166;28;19928;-81
2023/05/20 05:23:13;;;;;;;;;;;12.10;99.90;;;;;;8229746;28;19932;-83
2023/05/20 05:27:14;;;;;;;;;;;12.20;99.90;;;;;;8222441;28;19914;-83
2023/05/20 05:31:14;;;;;;;;;;;12.30;99.90;;;;;;8218247;28;19914;-82
2023/05/20 05:35:15;;;;;;;;;;;12.30;99.90;;;;;;8223346;28;19971;-82
2023/05/20 05:39:15;;;;;;;;;;;12.40;99.90;;;;;;8229792;28;20391;-81
2023/05/20 05:43:16;;;;;;;;;;;12.40;99.90;;;;;;8228494;28;19922;-83
2023/05/20 05:47:16;;;;;;;;;;;12.50;99.90;;;;;;8230571;28;20406;-82
2023/05/20 05:51:17;;;;;;;;;;;12.80;99.90;;;;;;8224226;28;19957;-83
2023/05/20 05:55:17;;;;;;;;;;;12.70;99.90;;;;;;8219853;28;19981;-82
2023/05/20 05:59:18;;;;;;;;;;;12.70;99.90;;;;;;8221532;28;20425;-81
2023/05/20 06:03:19;;;;;;;;;;;12.70;99.90;;;;;;8217954;28;20000;-82
2023/05/20 06:07:19;;;;;;;;;;;12.50;99.90;;;;;;8221781;28;19910;-82
2023/05/20 06:11:20;;;;;;;;;;;12.60;99.90;;;;;;8220706;28;20528;-83
2023/05/20 06:15:21;;;;;;;;;;;12.60;99.90;;;;;;8223376;28;19997;-83
2023/05/20 06:19:21;;;;;;;;;;;12.60;99.90;;;;;;8224283;28;19993;-83
2023/05/20 06:23:21;;;;;;;;;;;12.50;99.90;;;;;;8214897;28;19965;-82
2023/05/20 06:27:22;;;;;;;;;;;12.40;99.90;;;;;;8225836;28;19985;-81
2023/05/20 06:31:22;;;;;;;;;;;12.50;99.90;;;;;;8217612;28;19965;-82
2023/05/20 06:35:23;;;;;;;;;;;12.60;99.90;;;;;;8245072;28;19914;-83
2023/05/20 06:39:23;;;;;;;;;;;12.50;99.90;;;;;;8245625;28;20325;-82
2023/05/20 06:43:24;;;;;;;;;;;12.80;99.90;;;;;;8205759;28;19925;-82
2023/05/20 06:47:24;;;;;;;;;;;13.10;99.90;;;;;;8219501;28;19921;-81
2023/05/20 06:51:26;;;;;;;;;;;13.00;99.90;;;;;;8226276;28;19960;-82
2023/05/20 06:55:26;;;;;;;;;;;13.00;99.90;;;;;;8227250;28;20627;-82
2023/05/20 06:59:27;;;;;;;;;;;13.10;99.90;;;;;;8219829;28;19922;-81
2023/05/20 07:03:27;;;;;;;;;;;13.20;99.90;;;;;;8219288;28;19933;-83
2023/05/20 07:07:28;;;;;;;;;;;13.20;99.90;;;;;;8220944;28;20356;-82
2023/05/20 07:11:28;;;;;;;;;;;13.00;99.90;;;;;;8219890;28;20398;-82
2023/05/20 07:15:29;;;;;;;;;;;13.10;99.90;;;;;;8227071;28;19920;-85
2023/05/20 07:19:29;;;;;;;;;;;13.10;99.90;;;;;;8229870;28;20418;-84
2023/05/20 07:23:31;;;;;;;;;;;13.10;99.90;;;;;;8226265;28;22497;-85
2023/05/20 07:27:32;;;;;;;;;;;13.20;99.90;;;;;;8225796;28;20459;-86
2023/05/20 07:31:32;;;;;;;;;;;12.90;99.90;;;;;;8217945;28;20009;-85
2023/05/20 07:35:33;;;;;;;;;;;13.20;99.90;;;;;;8224368;28;19930;-85
2023/05/20 07:39:33;;;;;;;;;;;13.40;99.90;;;;;;8229470;28;19926;-85
2023/05/20 07:43:34;;;;;;;;;;;13.90;99.90;;;;;;8215304;28;19929;-85
2023/05/20 07:47:34;;;;;;;;;;;13.90;99.90;;;;;;8209699;28;19911;-85
2023/05/20 07:51:35;;;;;;;;;;;14.20;99.90;;;;;;8217413;28;19930;-86
2023/05/20 07:55:35;;;;;;;;;;;14.40;99.90;;;;;;8223787;28;20276;-84
2023/05/20 07:59:36;;;;;;;;;;;14.30;99.90;;;;;;8220679;28;19914;-85
2023/05/20 08:03:36;;;;;;;;;;;14.10;99.90;;;;;;8220061;28;20445;-84
2023/05/20 08:07:37;;;;;;;;;;;14.30;99.90;;;;;;8222586;28;20487;-84
2023/05/20 08:11:37;;;;;;;;;;;14.40;99.90;;;;;;8231140;28;19918;-84
2023/05/20 08:15:38;;;;;;;;;;;14.70;99.90;;;;;;8217011;28;20431;-85
2023/05/20 08:19:38;;;;;;;;;;;14.70;99.90;;;;;;8246064;28;20009;-85
2023/05/20 08:23:39;;;;;;;;;;;14.80;99.90;;;;;;8229345;28;19918;-85
2023/05/20 08:27:40;;;;;;;;;;;15.30;99.90;;;;;;8234170;28;20421;-85
2023/05/20 08:31:40;;;;;;;;;;;15.30;99.90;;;;;;8227456;28;19949;-82
2023/05/20 08:35:41;;;;;;;;;;;15.60;99.90;;;;;;8232078;28;19918;-84
2023/05/20 08:39:41;;;;;;;;;;;15.80;99.90;;;;;;8235229;28;19929;-84
2023/05/20 08:43:42;;;;;;;;;;;15.70;99.90;;;;;;8232935;28;19926;-83
2023/05/20 08:47:43;;;;;;;;;;;15.50;99.90;;;;;;8229012;28;19918;-83
2023/05/20 08:51:45;;;;;;;;;;;15.90;99.90;;;;;;8231907;28;20318;-83
2023/05/20 08:55:47;;;;;;;;;;;16.20;99.90;;;;;;8232033;28;19914;-84
2023/05/20 08:59:48;;;;;;;;;;;16.50;99.90;;;;;;8250943;28;19918;-84
2023/05/20 09:03:48;;;;;;;;;;;17.30;99.90;;;;;;8226107;28;19923;-82
2023/05/20 09:07:49;;;;;;;;;;;17.50;99.90;;;;;;8225637;28;20646;-83
2023/05/20 09:11:49;;;;;;;;;;;16.90;99.90;;;;;;8233651;28;20021;-81
2023/05/20 09:15:50;;;;;;;;;;;16.90;99.90;;;;;;8228409;28;19914;-84
2023/05/20 09:19:51;;;;;;;;;;;16.90;99.90;;;;;;8221377;28;19915;-81
2023/05/20 09:23:53;;;;;;;;;;;17.70;99.90;;;;;;8224519;28;20078;-81
2023/05/20 09:27:53;;;;;;;;;;;18.60;99.90;;;;;;8218327;28;20005;-82
2023/05/20 09:31:55;;;;;;;;;;;18.10;99.90;;;;;;8226656;28;19918;-82
2023/05/20 09:36:02;;;;;;;;;;;17.70;99.90;;;;;;8223734;28;19922;-82
2023/05/20 09:40:08;;;;;;;;;;;17.80;99.90;;;;;;8220476;28;19972;-83
2023/05/20 09:44:08;;;;;;;;;;;17.60;99.90;;;;;;8220734;28;19925;-80
2023/05/20 09:48:10;;;;;;;;;;;18.30;99.90;;;;;;8226535;28;19914;-80
2023/05/20 09:52:11;;;;;;;;;;;17.60;99.90;;;;;;8228561;28;19914;-81
2023/05/20 09:56:12;;;;;;;;;;;17.50;99.90;;;;;;8217379;28;19914;-81
2023/05/20 10:00:16;;;;;;;;;;;17.40;99.90;;;;;;8219107;28;19921;-82
2023/05/20 10:04:17;;;;;;;;;;;17.90;99.90;;;;;;8221699;28;19918;-83
2023/05/20 10:08:34;;;;;;;;;;;18.50;99.90;;;;;;8230466;28;19914;-82
2023/05/20 10:12:45;;;;;;;;;;;18.40;99.90;;;;;;8246081;28;19914;-82
2023/05/20 10:17:08;;;;;;;;;;;17.60;99.90;;;;;;8219674;28;20009;-81
2023/05/20 10:21:16;;;;;;;;;;;17.40;99.90;;;;;;8220647;28;19926;-80
2023/05/20 10:25:25;;;;;;;;;;;17.70;99.90;;;;;;8228050;28;19921;-82
2023/05/20 10:29:26;;;;;;;;;;;17.60;99.90;;;;;;8224581;28;19926;-84
2023/05/20 10:33:27;;;;;;;;;;;18.40;99.90;;;;;;8220036;28;20271;-83
2023/05/20 10:37:28;;;;;;;;;;;19.20;99.90;;;;;;8220845;28;19957;-84
2023/05/20 10:41:29;;;;;;;;;;;18.80;99.90;;;;;;8224712;28;19918;-83
2023/05/20 10:45:31;;;;;;;;;;;18.20;99.90;;;;;;8224759;28;19918;-81
2023/05/20 10:49:32;;;;;;;;;;;17.90;99.90;;;;;;8218464;28;19976;-83
2023/05/20 10:53:40;;;;;;;;;;;18.20;99.90;;;;;;8226609;28;19914;-83
2023/05/20 10:57:41;;;;;;;;;;;18.40;99.90;;;;;;8222988;28;19965;-83
2023/05/20 11:01:42;;;;;;;;;;;18.40;99.90;;;;;;8219943;28;19915;-82
2023/05/20 11:05:43;;;;;;;;;;;18.50;99.90;;;;;;8225931;28;20013;-81
2023/05/20 11:09:48;;;;;;;;;;;18.40;99.90;;;;;;8225055;28;19910;-82
2023/05/20 11:13:49;;;;;;;;;;;18.70;99.90;;;;;;8235345;28;19914;-83
2023/05/20 11:17:50;;;;;;;;;;;20.70;99.90;;;;;;8207659;28;19925;-83
2023/05/20 11:21:51;;;;;;;;;;;23.30;99.90;;;;;;8222559;28;19969;-81
2023/05/20 11:25:52;;;;;;;;;;;24.00;99.90;;;;;;8217753;28;19961;-81
2023/05/20 11:29:52;;;;;;;;;;;22.30;99.90;;;;;;8221428;28;19910;-81
2023/05/20 11:33:53;;;;;;;;;;;21.50;99.90;;;;;;8226730;28;19914;-83
2023/05/20 11:38:01;;;;;;;;;;;22.10;99.90;;;;;;8226534;28;19937;-82
2023/05/20 11:42:02;;;;;;;;;;;23.00;99.90;;;;;;8210525;28;19918;-82
2023/05/20 11:46:03;;;;;;;;;;;23.20;99.90;;;;;;8220611;28;19946;-80
2023/05/20 11:50:04;;;;;;;;;;;23.20;99.90;;;;;;8223025;28;19915;-83
2023/05/20 11:54:06;;;;;;;;;;;23.00;99.90;;;;;;8221359;28;19976;-81
2023/05/20 11:58:06;;;;;;;;;;;21.80;99.90;;;;;;8224268;28;19921;-81
2023/05/20 12:02:06;;;;;;;;;;;21.10;99.90;;;;;;8218737;28;20311;-80
2023/05/20 12:06:10;;;;;;;;;;;21.30;99.90;;;;;;8227748;28;20531;-81
2023/05/20 12:10:12;;;;;;;;;;;22.00;99.90;;;;;;8225759;28;19922;-80
2023/05/20 12:14:12;;;;;;;;;;;22.70;99.90;;;;;;8224281;28;19918;-81
2023/05/20 12:18:13;;;;;;;;;;;22.40;99.90;;;;;;8224434;28;19968;-81
2023/05/20 12:22:13;;;;;;;;;;;23.20;99.90;;;;;;8219411;28;19928;-82
2023/05/20 12:26:14;;;;;;;;;;;23.20;99.90;;;;;;8224595;28;20128;-83
2023/05/20 12:30:16;;;;;;;;;;;23.00;99.90;;;;;;8224125;28;20398;-84
2023/05/20 12:34:16;;;;;;;;;;;22.40;99.90;;;;;;8227442;28;19929;-84
2023/05/20 12:38:17;;;;;;;;;;;22.30;99.90;;;;;;8225081;28;19934;-82
2023/05/20 12:42:17;;;;;;;;;;;22.50;99.90;;;;;;8221089;28;19923;-83
2023/05/20 12:46:18;;;;;;;;;;;22.40;99.90;;;;;;8223709;28;20291;-83
2023/05/20 12:50:18;;;;;;;;;;;23.70;99.90;;;;;;8240534;28;20039;-82
2023/05/20 12:54:19;;;;;;;;;;;24.90;99.90;;;;;;8218547;28;19930;-82
2023/05/20 12:58:20;;;;;;;;;;;26.70;99.90;;;;;;8220818;28;19922;-84
2023/05/20 13:02:20;;;;;;;;;;;27.60;99.90;;;;;;8214131;28;20371;-82
2023/05/20 13:06:20;;;;;;;;;;;27.40;98.20;;;;;;8223449;28;19914;-84
2023/05/20 13:10:22;;;;;;;;;;;26.50;99.60;;;;;;8225217;28;19950;-82
2023/05/20 13:14:22;;;;;;;;;;;25.80;99.90;;;;;;8224705;28;19914;-82
2023/05/20 13:18:23;;;;;;;;;;;25.20;99.90;;;;;;8230042;28;19921;-82
2023/05/20 13:22:23;;;;;;;;;;;26.30;99.90;;;;;;8217910;28;20310;-82
2023/05/20 13:26:24;;;;;;;;;;;28.00;98.90;;;;;;8224431;28;20398;-82
2023/05/20 13:30:24;;;;;;;;;;;28.20;97.40;;;;;;8236674;28;19921;-84
2023/05/20 13:34:25;;;;;;;;;;;27.80;98.80;;;;;;8220073;28;20008;-83
2023/05/20 13:38:25;;;;;;;;;;;28.40;95.20;;;;;;8216294;28;19914;-83
2023/05/20 13:42:26;;;;;;;;;;;28.20;96.70;;;;;;8230921;28;19918;-83
2023/05/20 13:46:26;;;;;;;;;;;27.50;94.60;;;;;;8216731;28;19965;-84
2023/05/20 13:50:26;;;;;;;;;;;26.80;97.80;;;;;;8213161;28;19919;-83
2023/05/20 13:54:27;;;;;;;;;;;28.10;96.10;;;;;;8227201;28;19914;-84
2023/05/20 13:58:27;;;;;;;;;;;28.40;93.80;;;;;;8219663;28;19923;-82
2023/05/20 14:02:28;;;;;;;;;;;29.70;90.20;;;;;;8216681;28;19918;-83
2023/05/20 14:06:30;;;;;;;;;;;28.80;91.20;;;;;;8221604;28;19921;-83
2023/05/20 14:10:31;;;;;;;;;;;28.70;91.40;;;;;;8213556;28;20616;-82
2023/05/20 14:14:31;;;;;;;;;;;27.90;92.70;;;;;;8210715;28;19915;-82
2023/05/20 14:18:32;;;;;;;;;;;26.40;94.10;;;;;;8216813;28;19961;-84
2023/05/20 14:22:32;;;;;;;;;;;26.80;96.00;;;;;;8221447;28;19930;-81
2023/05/20 14:26:33;;;;;;;;;;;28.50;93.30;;;;;;8222092;28;19914;-83
2023/05/20 14:30:33;;;;;;;;;;;27.40;93.10;;;;;;8219942;28;19925;-83
2023/05/20 14:34:34;;;;;;;;;;;27.80;95.70;;;;;;8227575;28;20009;-83
2023/05/20 14:38:34;;;;;;;;;;;28.80;92.20;;;;;;8218835;28;19915;-82
2023/05/20 14:42:35;;;;;;;;;;;29.40;91.50;;;;;;8221876;28;19924;-83
2023/05/20 14:46:35;;;;;;;;;;;31.50;87.00;;;;;;8211980;28;19943;-82
2023/05/20 14:50:36;;;;;;;;;;;29.80;85.80;;;;;;8218605;28;20578;-82
2023/05/20 14:54:36;;;;;;;;;;;28.70;88.20;;;;;;8215370;28;19918;-81
2023/05/20 14:58:37;;;;;;;;;;;27.30;90.70;;;;;;8222779;28;20065;-82
2023/05/20 15:02:37;;;;;;;;;;;27.40;91.30;;;;;;8223560;28;19925;-82
2023/05/20 15:06:37;;;;;;;;;;;27.00;91.00;;;;;;8224922;28;19957;-83
2023/05/20 15:10:38;;;;;;;;;;;28.00;90.00;;;;;;8208936;28;19914;-82
2023/05/20 15:14:38;;;;;;;;;;;28.30;88.90;;;;;;8214581;28;19961;-82
2023/05/20 15:18:39;;;;;;;;;;;28.90;90.10;;;;;;8223507;28;20005;-82
2023/05/20 15:22:40;;;;;;;;;;;30.00;83.30;;;;;;8209161;28;20295;-82
2023/05/20 15:26:40;;;;;;;;;;;29.00;88.50;;;;;;8208550;28;20013;-83
2023/05/20 15:30:41;;;;;;;;;;;27.50;89.90;;;;;;8221900;28;20593;-81
2023/05/20 15:34:41;;;;;;;;;;;26.70;91.80;;;;;;8221322;28;19911;-82
2023/05/20 15:38:43;;;;;;;;;;;26.60;92.70;;;;;;8220294;28;19914;-82
2023/05/20 15:42:43;;;;;;;;;;;26.10;92.60;;;;;;8233936;28;19918;-81
2023/05/20 15:46:45;;;;;;;;;;;25.10;94.80;;;;;;8240150;28;20460;-81
2023/05/20 15:50:45;;;;;;;;;;;24.40;95.00;;;;;;8216846;28;19914;-81
2023/05/20 15:54:46;;;;;;;;;;;23.90;95.20;;;;;;8216651;28;20454;-82
2023/05/20 15:58:46;;;;;;;;;;;24.10;97.60;;;;;;8204408;28;19921;-82
2023/05/20 16:02:47;;;;;;;;;;;24.30;97.00;;;;;;8223433;28;19954;-83
2023/05/20 16:06:47;;;;;;;;;;;24.20;95.20;;;;;;8206465;28;19999;-81
2023/05/20 16:10:48;;;;;;;;;;;23.80;96.50;;;;;;8230967;28;19973;-82
2023/05/20 16:14:48;;;;;;;;;;;23.50;97.50;;;;;;8217511;28;19922;-82
2023/05/20 16:18:49;;;;;;;;;;;23.50;97.60;;;;;;8215394;28;19914;-82
2023/05/20 16:22:49;;;;;;;;;;;23.60;97.60;;;;;;8220064;28;19977;-81
2023/05/20 16:26:50;;;;;;;;;;;23.70;98.00;;;;;;8216467;28;19914;-81
2023/05/20 16:30:51;;;;;;;;;;;23.60;99.60;;;;;;8225951;28;20030;-81
2023/05/20 16:34:53;;;;;;;;;;;23.60;99.90;;;;;;8220596;28;19921;-84
2023/05/20 16:38:53;;;;;;;;;;;23.20;99.90;;;;;;8243635;28;20276;-84
2023/05/20 16:42:54;;;;;;;;;;;23.00;99.90;;;;;;8225462;28;19918;-83
2023/05/20 16:46:55;;;;;;;;;;;22.90;99.90;;;;;;8241333;28;19914;-84
2023/05/20 16:50:55;;;;;;;;;;;22.80;99.90;;;;;;8234157;28;19910;-83
2023/05/20 16:55:00;;;;;;;;;;;22.60;99.90;;;;;;8223915;28;20522;-83
2023/05/20 16:59:01;;;;;;;;;;;22.10;99.90;;;;;;8232390;28;19986;-83
2023/05/20 17:03:02;;;;;;;;;;;22.20;99.90;;;;;;8228115;28;20402;-84
2023/05/20 17:07:02;;;;;;;;;;;22.10;99.90;;;;;;8259162;28;19922;-85
2023/05/20 17:11:03;;;;;;;;;;;22.10;99.90;;;;;;8235217;28;19914;-83
2023/05/20 17:15:04;;;;;;;;;;;22.00;99.90;;;;;;8222432;28;19993;-82
2023/05/20 17:19:05;;;;;;;;;;;21.90;99.90;;;;;;8224473;28;19930;-82
2023/05/20 17:23:05;;;;;;;;;;;22.10;99.90;;;;;;8220983;28;21246;-82
2023/05/20 17:27:06;;;;;;;;;;;22.10;99.90;;;;;;8222653;28;19919;-80
2023/05/20 17:31:07;;;;;;;;;;;21.70;99.90;;;;;;8224026;28;19957;-82
2023/05/20 17:35:08;;;;;;;;;;;21.50;99.90;;;;;;8214731;28;20009;-82
2023/05/20 17:39:08;;;;;;;;;;;21.20;99.90;;;;;;8221480;28;20387;-80
2023/05/20 17:43:09;;;;;;;;;;;21.10;99.90;;;;;;8216967;28;19923;-81
2023/05/20 17:47:09;;;;;;;;;;;21.50;99.90;;;;;;8221954;28;20420;-81
2023/05/20 17:51:10;;;;;;;;;;;21.00;99.90;;;;;;8221134;28;19925;-81
2023/05/20 17:55:11;;;;;;;;;;;21.10;99.90;;;;;;8216036;28;19914;-80
2023/05/20 17:59:12;;;;;;;;;;;20.70;99.90;;;;;;8222742;28;20620;-80
2023/05/20 18:03:12;;;;;;;;;;;20.80;99.90;;;;;;8224005;28;19968;-81
2023/05/20 18:07:13;;;;;;;;;;;20.80;99.90;;;;;;8222203;28;19910;-81
2023/05/20 18:11:13;;;;;;;;;;;20.80;99.90;;;;;;8219883;28;19914;-82
2023/05/20 18:15:16;;;;;;;;;;;20.70;99.90;;;;;;8219633;28;20379;-81
2023/05/20 18:19:17;;;;;;;;;;;19.90;99.90;;;;;;8246570;28;19925;-82
2023/05/20 18:23:17;;;;;;;;;;;20.20;99.90;;;;;;8222837;28;20417;-82
2023/05/20 18:27:18;;;;;;;;;;;19.40;99.90;;;;;;8223825;28;19922;-82
2023/05/20 18:31:18;;;;;;;;;;;19.60;99.90;;;;;;8206794;28;20315;-83
2023/05/20 18:35:18;;;;;;;;;;;19.60;99.90;;;;;;8226400;28;20391;-82
2023/05/20 18:39:19;;;;;;;;;;;18.50;99.90;;;;;;8243842;28;19910;-81
2023/05/20 18:43:20;;;;;;;;;;;18.20;99.90;;;;;;8239686;28;20264;-81
2023/05/20 18:47:20;;;;;;;;;;;17.80;99.90;;;;;;8223011;28;19961;-83
2023/05/20 18:51:21;;;;;;;;;;;17.40;99.90;;;;;;8221611;28;19964;-82
2023/05/20 18:55:22;;;;;;;;;;;17.60;99.90;;;;;;8219990;28;20453;-82
2023/05/20 18:59:23;;;;;;;;;;;17.70;99.90;;;;;;8224424;28;19970;-84
2023/05/20 19:03:25;;;;;;;;;;;17.40;99.90;;;;;;8225747;28;20395;-83
2023/05/20 19:07:25;;;;;;;;;;;16.80;99.90;;;;;;8228089;28;19917;-83
2023/05/20 19:11:26;;;;;;;;;;;16.70;99.90;;;;;;8226500;28;19914;-82
2023/05/20 19:15:28;;;;;;;;;;;16.60;99.90;;;;;;8227928;28;20350;-83
2023/05/20 19:19:29;;;;;;;;;;;16.20;99.90;;;;;;8222322;28;19997;-83
2023/05/20 19:23:31;;;;;;;;;;;16.40;99.90;;;;;;8226561;28;19914;-83
2023/05/20 19:27:31;;;;;;;;;;;16.90;99.90;;;;;;8222148;28;19949;-83
2023/05/20 19:31:32;;;;;;;;;;;16.00;99.90;;;;;;8219213;28;19922;-83
2023/05/20 19:35:32;;;;;;;;;;;15.70;99.90;;;;;;8213690;28;19915;-82
2023/05/20 19:39:33;;;;;;;;;;;16.60;99.90;;;;;;8222913;28;20520;-81
2023/05/20 19:43:33;;;;;;;;;;;15.80;99.90;;;;;;8215654;28;20701;-81
2023/05/20 19:47:33;;;;;;;;;;;15.60;99.90;;;;;;8197495;28;19927;-81
2023/05/20 19:51:34;;;;;;;;;;;15.50;99.90;;;;;;8190250;28;20282;-81
2023/05/20 19:55:35;;;;;;;;;;;15.70;99.90;;;;;;8178232;28;19926;-78
2023/05/20 19:59:36;;;;;;;;;;;15.10;99.90;;;;;;8180032;28;20761;-79
2023/05/20 20:03:40;;;;;;;;;;;15.00;99.90;;;;;;8180762;28;19954;-77
2023/05/20 20:07:41;;;;;;;;;;;15.10;99.90;;;;;;8192034;28;19926;-79
2023/05/20 20:11:42;;;;;;;;;;;15.00;99.90;;;;;;8188035;28;19914;-79
2023/05/20 20:15:42;;;;;;;;;;;15.10;99.90;;;;;;8191736;28;19966;-80
2023/05/20 20:19:46;;;;;;;;;;;15.10;99.90;;;;;;8189649;28;20330;-79
2023/05/20 20:23:47;;;;;;;;;;;15.10;99.90;;;;;;8199180;28;19929;-79
2023/05/20 20:27:48;;;;;;;;;;;15.50;99.90;;;;;;8196598;28;19927;-78
2023/05/20 20:31:49;;;;;;;;;;;15.60;99.90;;;;;;8204309;28;20544;-78
2023/05/20 20:35:53;;;;;;;;;;;15.90;99.90;;;;;;8200854;28;19929;-80
2023/05/20 20:39:54;;;;;;;;;;;15.60;99.90;;;;;;8199106;28;19942;-80
2023/05/20 20:43:54;;;;;;;;;;;16.20;99.90;;;;;;8188755;28;19969;-80
2023/05/20 20:47:55;;;;;;;;;;;14.80;99.90;;;;;;8193559;28;19934;-79
2023/05/20 20:51:55;;;;;;;;;;;14.70;99.90;;;;;;8192256;28;19938;-80
2023/05/20 20:55:56;;;;;;;;;;;14.40;99.90;;;;;;8193030;28;19915;-80
2023/05/20 20:59:57;;;;;;;;;;;14.20;99.90;;;;;;8194508;28;20536;-80
2023/05/20 21:03:57;;;;;;;;;;;14.20;99.90;;;;;;8196036;28;20338;-80
2023/05/20 21:08:02;;;;;;;;;;;13.80;99.90;;;;;;8218901;28;19923;-79
2023/05/20 21:12:05;;;;;;;;;;;13.90;99.90;;;;;;8199759;28;20376;-81
2023/05/20 21:16:05;;;;;;;;;;;13.80;99.90;;;;;;8200189;28;19915;-81
2023/05/20 21:20:06;;;;;;;;;;;13.40;99.90;;;;;;8200608;29;19917;-81
2023/05/20 21:24:07;;;;;;;;;;;13.40;99.90;;;;;;8196331;28;19976;-81
2023/05/20 21:28:07;;;;;;;;;;;13.10;99.90;;;;;;8197207;28;20598;-80
2023/05/20 21:32:08;;;;;;;;;;;13.00;99.90;;;;;;8199461;28;19922;-81
2023/05/20 21:36:08;;;;;;;;;;;13.00;99.90;;;;;;8200581;28;19911;-80
2023/05/20 21:40:09;;;;;;;;;;;13.40;99.90;;;;;;8198830;28;19910;-81
2023/05/20 21:44:09;;;;;;;;;;;13.40;99.90;;;;;;8198408;28;19925;-81
2023/05/20 21:48:10;;;;;;;;;;;14.10;99.90;;;;;;8199300;29;20310;-80
2023/05/20 21:52:10;;;;;;;;;;;13.90;99.90;;;;;;8199436;28;20288;-81
2023/05/20 21:56:11;;;;;;;;;;;13.60;99.90;;;;;;8204845;28;19953;-81
2023/05/20 22:00:13;;;;;;;;;;;13.20;99.90;;;;;;8198911;29;19910;-80
2023/05/20 22:04:14;;;;;;;;;;;13.10;99.90;;;;;;8196128;28;19993;-80
2023/05/20 22:08:15;;;;;;;;;;;12.90;99.90;;;;;;8204273;28;19914;-81
2023/05/20 22:12:16;;;;;;;;;;;13.50;99.90;;;;;;8199459;28;19918;-81
2023/05/20 22:16:17;;;;;;;;;;;12.30;99.90;;;;;;8198854;28;19919;-78
2023/05/20 22:20:18;;;;;;;;;;;11.90;99.90;;;;;;8198198;28;19918;-81
2023/05/20 22:24:18;;;;;;;;;;;11.80;99.90;;;;;;8197825;28;20633;-81
2023/05/20 22:28:19;;;;;;;;;;;11.70;99.90;;;;;;8202286;28;19946;-81
2023/05/20 22:32:19;;;;;;;;;;;11.70;99.90;;;;;;8198531;28;20294;-81
2023/05/20 22:36:21;;;;;;;;;;;11.60;99.90;;;;;;8198645;28;20005;-81
2023/05/20 22:40:21;;;;;;;;;;;11.70;99.90;;;;;;8198446;29;19914;-81
2023/05/20 22:44:22;;;;;;;;;;;11.70;99.90;;;;;;8196209;28;19918;-81
2023/05/20 22:48:22;;;;;;;;;;;11.90;99.90;;;;;;8197281;29;20291;-81
2023/05/20 22:52:24;;;;;;;;;;;12.00;99.90;;;;;;8196964;29;19910;-80
2023/05/20 22:56:24;;;;;;;;;;;12.00;99.90;;;;;;8197849;28;19914;-80
2023/05/20 23:00:25;;;;;;;;;;;11.90;99.90;;;;;;8197177;28;19914;-80
2023/05/20 23:04:25;;;;;;;;;;;11.90;99.90;;;;;;8194243;28;19915;-81
2023/05/20 23:08:26;;;;;;;;;;;11.90;99.90;;;;;;8196524;29;20031;-80
2023/05/20 23:12:26;;;;;;;;;;;11.50;99.90;;;;;;8197271;28;19957;-80
2023/05/20 23:16:28;;;;;;;;;;;11.60;99.90;;;;;;8197528;28;20287;-80
2023/05/20 23:20:28;;;;;;;;;;;11.50;99.90;;;;;;8197071;29;19914;-80